Time;durP1;ratioP1;P1;durP2;ratioP2;P2;SDS_P1;SDS_P2;PMS_P1;PMS_P2;Temp;Humidity;BMP_temperature;BMP_pressure;BME280_temperature;BME280_humidity;BME280_pressure;Samples;Min_cycle;Max_cycle;Signal;HPM_P1;HPM_P2
2023/05/31 00:01:46;;;;;;;10.75;7.22;;;14.70;99.90;;;;;;5095208;28;20629;-51
2023/05/31 00:04:12;;;;;;;10.02;7.28;;;;;;;;;;5095047;28;20162;-58
2023/05/31 00:06:38;;;;;;;12.00;7.25;;;14.70;99.90;;;;;;5094545;28;20300;-48
2023/05/31 00:09:04;;;;;;;12.73;8.00;;;14.60;99.90;;;;;;5095425;28;20734;-47
2023/05/31 00:11:29;;;;;;;13.77;7.25;;;14.60;99.90;;;;;;5095091;28;20166;-53
2023/05/31 00:13:55;;;;;;;10.52;7.45;;;14.60;99.90;;;;;;5095004;28;20172;-47
2023/05/31 00:16:20;;;;;;;9.80;7.68;;;14.40;99.90;;;;;;5094959;28;20167;-48
2023/05/31 00:18:46;;;;;;;10.77;6.93;;;14.60;99.90;;;;;;5094973;28;20222;-47
2023/05/31 00:21:12;;;;;;;14.25;8.57;;;14.60;99.90;;;;;;5093590;28;20217;-47
2023/05/31 00:23:38;;;;;;;13.48;8.18;;;;;;;;;;5094717;28;20542;-50
2023/05/31 00:26:03;;;;;;;13.30;8.00;;;14.50;99.90;;;;;;5095105;28;20167;-47
2023/05/31 00:28:29;;;;;;;11.45;8.07;;;14.50;99.90;;;;;;5094559;28;20200;-52
2023/05/31 00:30:54;;;;;;;11.60;8.43;;;14.50;99.90;;;;;;5094571;28;20168;-50
2023/05/31 00:33:20;;;;;;;11.13;7.82;;;14.60;99.90;;;;;;5094623;28;20166;-52
2023/05/31 00:35:45;;;;;;;12.95;8.30;;;14.30;99.90;;;;;;5094552;28;20157;-51
2023/05/31 00:38:12;;;;;;;13.20;7.85;;;14.60;99.90;;;;;;5094786;28;20169;-48
2023/05/31 00:40:38;;;;;;;10.38;7.47;;;14.50;99.90;;;;;;5094385;28;20173;-58
2023/05/31 00:43:04;;;;;;;13.65;8.18;;;14.40;99.90;;;;;;5094766;28;20170;-54
2023/05/31 00:45:31;;;;;;;15.25;8.35;;;14.30;99.90;;;;;;5094979;28;20191;-48
2023/05/31 00:48:00;;;;;;;14.23;8.43;;;14.40;99.90;;;;;;5094513;28;20551;-51
2023/05/31 00:50:26;;;;;;;15.02;8.45;;;14.20;99.90;;;;;;5094539;28;20496;-47
2023/05/31 00:52:53;;;;;;;9.63;7.30;;;;;;;;;;5093626;28;20177;-49
2023/05/31 00:55:19;;;;;;;11.48;8.27;;;14.30;99.90;;;;;;5094231;28;20169;-47
2023/05/31 00:57:45;;;;;;;11.50;8.25;;;14.30;99.90;;;;;;5094485;28;20255;-48
2023/05/31 01:00:11;;;;;;;13.85;8.43;;;14.20;99.90;;;;;;5094310;28;20260;-47
2023/05/31 01:02:38;;;;;;;14.52;8.52;;;14.20;99.90;;;;;;5094160;28;20261;-47
2023/05/31 01:05:08;;;;;;;12.18;8.68;;;14.80;99.90;;;;;;5094406;28;20162;-48
2023/05/31 01:07:34;;;;;;;13.10;8.15;;;;;;;;;;5094112;28;20586;-48
2023/05/31 01:10:06;;;;;;;16.42;9.15;;;14.20;99.90;;;;;;5094325;28;20226;-49
2023/05/31 01:12:31;;;;;;;12.07;8.55;;;14.10;99.90;;;;;;5094373;28;20165;-48
2023/05/31 01:15:18;;;;;;;15.48;8.43;;;14.00;99.90;;;;;;5093858;28;20536;-50
2023/05/31 01:18:31;;;;;;;16.35;8.30;;;14.10;99.90;;;;;;5093819;28;20621;-48
2023/05/31 01:21:01;;;;;;;13.75;8.27;;;14.10;99.90;;;;;;5063734;28;20181;-47
2023/05/31 01:23:37;;;;;;;12.20;8.18;;;14.00;99.90;;;;;;5093828;28;20248;-49
2023/05/31 01:26:40;;;;;;;14.00;8.80;;;14.10;99.90;;;;;;5094105;28;20298;-48
2023/05/31 01:29:11;;;;;;;10.48;7.53;;;13.90;99.90;;;;;;5071849;28;20225;-47
2023/05/31 01:31:39;;;;;;;11.95;7.95;;;14.00;99.90;;;;;;5093441;28;20165;-47
2023/05/31 01:34:05;;;;;;;12.75;8.65;;;13.90;99.90;;;;;;5093615;28;20196;-48
2023/05/31 01:36:31;;;;;;;10.98;8.15;;;13.80;99.90;;;;;;5093780;28;20535;-48
2023/05/31 01:38:56;;;;;;;15.38;9.35;;;14.30;99.90;;;;;;5093331;28;20313;-47
2023/05/31 01:41:26;;;;;;;12.52;7.70;;;13.70;99.90;;;;;;5093235;28;20173;-47
2023/05/31 01:43:52;;;;;;;11.52;8.25;;;13.90;99.90;;;;;;5093211;28;20641;-47
2023/05/31 01:46:19;;;;;;;12.57;8.27;;;13.60;99.90;;;;;;5093218;28;20161;-47
2023/05/31 01:48:46;;;;;;;12.77;8.18;;;13.50;99.90;;;;;;5093079;28;20312;-47
2023/05/31 01:51:14;;;;;;;14.13;8.48;;;13.80;99.90;;;;;;5093096;28;20168;-47
2023/05/31 01:53:40;;;;;;;11.35;8.13;;;13.80;99.90;;;;;;5074923;28;20165;-47
2023/05/31 01:56:07;;;;;;;12.18;8.32;;;13.50;99.90;;;;;;5092983;28;20240;-47
2023/05/31 01:58:36;;;;;;;13.52;7.82;;;13.60;99.90;;;;;;5093365;28;20629;-47
2023/05/31 02:01:02;;;;;;;14.95;8.40;;;13.80;99.90;;;;;;5093415;28;20739;-47
2023/05/31 02:03:28;;;;;;;12.48;7.93;;;13.80;99.90;;;;;;5092850;28;20180;-48
2023/05/31 02:05:57;;;;;;;13.20;7.75;;;13.80;99.90;;;;;;5092761;28;20536;-47
2023/05/31 02:08:24;;;;;;;13.30;8.35;;;14.10;99.90;;;;;;5074579;28;20213;-47
2023/05/31 02:10:50;;;;;;;13.32;8.52;;;;;;;;;;5074503;28;20199;-47
2023/05/31 02:13:16;;;;;;;12.82;8.90;;;13.50;99.90;;;;;;5092656;28;20651;-47
2023/05/31 02:15:42;;;;;;;11.85;7.68;;;13.80;99.90;;;;;;5092863;28;20177;-47
2023/05/31 02:18:08;;;;;;;15.07;8.63;;;13.90;99.90;;;;;;5092501;28;20621;-47
2023/05/31 02:20:34;;;;;;;13.57;8.70;;;13.80;99.90;;;;;;5092956;28;20655;-47
2023/05/31 02:22:59;;;;;;;14.95;8.30;;;13.40;99.90;;;;;;5093126;28;20176;-47
2023/05/31 02:25:25;;;;;;;13.70;8.43;;;13.70;99.90;;;;;;5092438;28;20169;-47
2023/05/31 02:27:51;;;;;;;15.93;8.40;;;;;;;;;;5092647;28;20185;-47
2023/05/31 02:30:17;;;;;;;11.98;8.00;;;13.70;99.90;;;;;;5092366;28;20165;-47
2023/05/31 02:32:42;;;;;;;13.02;7.82;;;13.60;99.90;;;;;;5092353;28;20182;-47
2023/05/31 02:35:10;;;;;;;15.20;8.40;;;13.60;99.90;;;;;;5092353;28;20173;-47
2023/05/31 02:37:37;;;;;;;15.15;8.38;;;13.60;99.90;;;;;;5092104;28;20720;-47
2023/05/31 02:40:08;;;;;;;14.38;8.07;;;13.60;99.90;;;;;;5092511;28;20177;-47
2023/05/31 02:42:41;;;;;;;12.15;8.40;;;13.60;99.90;;;;;;5092530;28;20161;-47
2023/05/31 02:45:08;;;;;;;16.55;8.10;;;13.70;99.90;;;;;;5092128;28;20158;-47
2023/05/31 02:47:36;;;;;;;14.15;8.15;;;13.90;99.90;;;;;;5092521;28;20660;-47
2023/05/31 02:50:02;;;;;;;14.00;8.35;;;13.70;99.90;;;;;;5092365;28;20173;-49
2023/05/31 02:52:27;;;;;;;12.20;8.85;;;13.60;99.90;;;;;;5091961;28;20315;-47
2023/05/31 02:54:53;;;;;;;11.27;7.80;;;13.50;99.90;;;;;;5092261;28;20165;-47
2023/05/31 02:57:18;;;;;;;14.10;7.80;;;13.50;99.90;;;;;;5091982;28;20197;-47
2023/05/31 02:59:46;;;;;;;13.40;7.97;;;13.60;99.90;;;;;;5091922;28;20255;-48
2023/05/31 03:02:11;;;;;;;13.18;7.43;;;13.90;99.90;;;;;;5091798;28;20586;-47
2023/05/31 03:04:37;;;;;;;16.13;8.15;;;13.60;99.90;;;;;;5091900;28;20173;-47
2023/05/31 03:07:03;;;;;;;13.02;8.07;;;13.50;99.90;;;;;;5092138;28;20217;-52
2023/05/31 03:09:28;;;;;;;14.55;7.90;;;13.50;99.90;;;;;;5091743;28;20201;-54
2023/05/31 03:11:54;;;;;;;11.35;7.75;;;13.40;99.90;;;;;;5091691;28;20169;-47
2023/05/31 03:14:20;;;;;;;14.98;7.80;;;13.30;99.90;;;;;;5091709;28;20209;-48
2023/05/31 03:16:45;;;;;;;16.15;8.85;;;13.60;99.90;;;;;;5091554;28;20193;-54
2023/05/31 03:19:12;;;;;;;11.52;7.75;;;13.40;99.90;;;;;;5091884;28;20185;-47
2023/05/31 03:21:38;;;;;;;11.35;8.23;;;13.10;99.90;;;;;;5091851;28;20234;-47
2023/05/31 03:24:04;;;;;;;11.82;7.70;;;13.40;99.90;;;;;;5091430;28;20255;-55
2023/05/31 03:26:30;;;;;;;12.52;7.45;;;13.20;99.90;;;;;;5092072;28;20248;-63
2023/05/31 03:28:56;;;;;;;11.10;7.70;;;13.30;99.90;;;;;;5091505;28;20261;-60
2023/05/31 03:31:21;;;;;;;12.63;7.35;;;13.30;99.90;;;;;;5091505;28;20170;-56
2023/05/31 03:33:47;;;;;;;10.80;7.18;;;13.20;99.90;;;;;;5091595;28;20212;-49
2023/05/31 03:36:13;;;;;;;12.93;8.50;;;;;;;;;;5091579;28;20189;-46
2023/05/31 03:38:39;;;;;;;10.57;7.30;;;;;;;;;;5091483;28;20199;-46
2023/05/31 03:41:04;;;;;;;15.98;7.88;;;13.10;99.90;;;;;;5091669;28;20169;-46
2023/05/31 03:43:30;;;;;;;15.75;8.80;;;12.90;99.90;;;;;;5091941;28;20231;-46
2023/05/31 03:46:00;;;;;;;10.88;7.38;;;13.20;99.90;;;;;;5091274;28;20157;-46
2023/05/31 03:48:29;;;;;;;14.02;8.95;;;13.10;99.90;;;;;;5091538;28;20248;-46
2023/05/31 03:50:56;;;;;;;12.30;8.25;;;13.30;99.90;;;;;;5091575;28;20242;-46
2023/05/31 03:53:22;;;;;;;11.45;7.30;;;13.00;99.90;;;;;;5091591;28;20220;-46
2023/05/31 03:55:47;;;;;;;12.52;7.95;;;13.20;99.90;;;;;;5091336;28;20554;-47
2023/05/31 03:58:13;;;;;;;11.98;8.00;;;13.20;99.90;;;;;;5091527;28;20197;-46
2023/05/31 04:00:40;;;;;;;11.82;8.02;;;13.30;99.90;;;;;;5091245;28;20169;-46
2023/05/31 04:03:05;;;;;;;20.05;8.05;;;13.00;99.90;;;;;;5091454;28;20215;-46
2023/05/31 04:05:31;;;;;;;12.20;8.30;;;13.20;99.90;;;;;;5091322;28;20173;-46
2023/05/31 04:07:56;;;;;;;14.18;7.88;;;13.40;99.90;;;;;;5090675;28;20286;-47
2023/05/31 04:10:22;;;;;;;13.15;8.70;;;13.70;99.90;;;;;;5091359;28;20247;-47
2023/05/31 04:12:48;;;;;;;11.02;8.00;;;13.10;99.90;;;;;;5091311;28;20548;-46
2023/05/31 04:15:13;;;;;;;15.30;8.60;;;13.40;99.90;;;;;;5091092;28;20177;-48
2023/05/31 04:17:39;;;;;;;11.63;8.40;;;13.40;99.90;;;;;;5091263;28;20532;-50
2023/05/31 04:20:08;;;;;;;13.32;8.85;;;;;;;;;;5091301;28;20165;-47
2023/05/31 04:22:37;;;;;;;15.77;7.97;;;13.30;99.90;;;;;;5091102;28;20606;-50
2023/05/31 04:25:03;;;;;;;13.25;9.13;;;13.70;99.90;;;;;;5073291;28;20201;-52
2023/05/31 04:27:30;;;;;;;13.73;8.25;;;13.70;99.90;;;;;;5092527;28;20629;-49
2023/05/31 04:29:57;;;;;;;16.27;8.73;;;13.80;99.90;;;;;;5094458;28;20216;-48
2023/05/31 04:32:24;;;;;;;13.07;7.53;;;13.90;99.90;;;;;;5094758;28;20169;-49
2023/05/31 04:34:52;;;;;;;12.98;8.02;;;14.10;99.90;;;;;;5094511;28;20169;-47
2023/05/31 04:37:18;;;;;;;15.02;7.60;;;;;;;;;;5094484;28;20531;-57
2023/05/31 04:39:43;;;;;;;10.40;8.02;;;14.40;99.90;;;;;;5094582;28;20169;-54
2023/05/31 04:42:11;;;;;;;11.40;8.05;;;14.70;99.90;;;;;;5094699;28;20616;-50
2023/05/31 04:44:37;;;;;;;10.27;7.53;;;14.40;99.90;;;;;;5094655;28;20256;-48
2023/05/31 04:47:04;;;;;;;15.20;7.93;;;;;;;;;;5094684;28;20158;-49
2023/05/31 04:49:30;;;;;;;14.15;7.03;;;15.10;99.90;;;;;;5094608;28;20240;-48
2023/05/31 04:51:56;;;;;;;11.50;7.93;;;15.10;99.90;;;;;;5094269;28;20197;-51
2023/05/31 04:54:22;;;;;;;14.50;8.48;;;15.20;99.90;;;;;;5094083;28;20540;-47
2023/05/31 04:56:47;;;;;;;12.65;8.20;;;15.10;99.90;;;;;;5094163;28;20161;-47
2023/05/31 04:59:13;;;;;;;11.35;7.18;;;15.30;99.90;;;;;;5094029;28;20256;-50
2023/05/31 05:01:40;;;;;;;11.40;7.78;;;;;;;;;;5094047;28;20205;-48
2023/05/31 05:04:06;;;;;;;8.82;7.65;;;15.10;99.90;;;;;;5093992;28;20230;-54
2023/05/31 05:06:32;;;;;;;13.52;7.72;;;15.20;99.90;;;;;;5094446;28;20233;-47
2023/05/31 05:08:58;;;;;;;10.38;7.50;;;15.20;99.90;;;;;;5094149;28;20296;-48
2023/05/31 05:11:24;;;;;;;12.55;7.97;;;15.30;99.90;;;;;;5093831;28;20240;-57
2023/05/31 05:13:50;;;;;;;14.90;8.27;;;15.20;99.90;;;;;;5094006;28;20192;-61
2023/05/31 05:16:16;;;;;;;12.65;7.65;;;15.70;99.90;;;;;;5093743;28;20524;-52
2023/05/31 05:18:41;;;;;;;13.48;7.55;;;;;;;;;;5093542;28;20616;-57
2023/05/31 05:21:08;;;;;;;11.75;7.63;;;;;;;;;;5093232;28;20165;-59
2023/05/31 05:23:34;;;;;;;9.65;7.70;;;15.50;99.90;;;;;;5093657;28;20166;-50
2023/05/31 05:26:00;;;;;;;10.68;7.40;;;16.00;99.90;;;;;;5094248;28;20180;-48
2023/05/31 05:28:28;;;;;;;16.20;7.95;;;15.60;99.90;;;;;;5093488;28;20197;-62
2023/05/31 05:30:53;;;;;;;13.25;7.68;;;16.00;99.90;;;;;;5093447;28;20248;-59
2023/05/31 05:33:19;;;;;;;9.15;7.57;;;16.10;99.90;;;;;;5093517;28;20637;-56
2023/05/31 05:35:45;;;;;;;11.98;8.00;;;16.00;99.90;;;;;;5093402;28;20169;-47
2023/05/31 05:38:10;;;;;;;12.18;8.18;;;16.20;99.90;;;;;;5093117;28;20176;-51
2023/05/31 05:40:36;;;;;;;11.93;7.95;;;16.10;99.90;;;;;;5093625;28;20188;-51
2023/05/31 05:43:01;;;;;;;14.55;8.35;;;16.40;99.90;;;;;;5093751;28;20634;-48
2023/05/31 05:45:27;;;;;;;14.50;9.32;;;16.50;99.90;;;;;;5093268;28;20650;-48
2023/05/31 05:47:55;;;;;;;11.35;7.95;;;;;;;;;;5092792;28;20173;-52
2023/05/31 05:50:21;;;;;;;10.65;7.72;;;16.40;99.90;;;;;;5093155;28;20177;-48
2023/05/31 05:52:46;;;;;;;12.00;7.47;;;16.30;99.90;;;;;;5092674;28;20278;-48
2023/05/31 05:55:12;;;;;;;10.40;7.53;;;16.40;99.90;;;;;;5092882;28;20169;-48
2023/05/31 05:57:37;;;;;;;12.30;8.55;;;16.20;99.90;;;;;;5092604;28;20168;-50
2023/05/31 06:00:10;;;;;;;11.60;8.00;;;16.40;99.90;;;;;;5092403;28;20170;-48
2023/05/31 06:02:37;;;;;;;13.52;7.93;;;16.40;99.90;;;;;;5092773;28;20212;-52
2023/05/31 06:05:03;;;;;;;14.13;8.05;;;16.30;99.90;;;;;;5092443;28;20169;-48
2023/05/31 06:07:29;;;;;;;14.57;7.65;;;;;;;;;;5092895;28;20209;-51
2023/05/31 06:09:56;;;;;;;11.63;7.93;;;;;;;;;;5092468;28;20570;-48
2023/05/31 06:12:22;;;;;;;13.65;7.78;;;16.60;99.90;;;;;;5092464;28;20629;-48
2023/05/31 06:14:48;;;;;;;14.70;7.93;;;16.60;99.90;;;;;;5092590;28;20173;-48
2023/05/31 06:17:14;;;;;;;14.07;8.50;;;;;;;;;;5092517;28;20651;-52
2023/05/31 06:19:40;;;;;;;16.55;8.00;;;17.10;99.90;;;;;;5092480;28;20177;-56
2023/05/31 06:22:06;;;;;;;13.43;8.02;;;17.00;99.90;;;;;;5092349;28;20762;-48
2023/05/31 06:24:31;;;;;;;11.13;6.97;;;16.90;99.90;;;;;;5092924;28;20193;-48
2023/05/31 06:26:57;;;;;;;13.65;7.55;;;17.30;99.90;;;;;;5092365;28;20643;-49
2023/05/31 06:29:22;;;;;;;10.18;7.10;;;17.00;99.90;;;;;;5092296;28;20236;-48
2023/05/31 06:31:48;;;;;;;11.25;6.75;;;;;;;;;;5092340;28;20161;-48
2023/05/31 06:34:14;;;;;;;11.82;6.85;;;16.70;99.90;;;;;;5092271;28;20177;-49
2023/05/31 06:36:41;;;;;;;14.68;8.55;;;17.20;99.90;;;;;;5092277;28;20195;-55
2023/05/31 06:39:07;;;;;;;11.10;7.78;;;17.20;99.90;;;;;;5092117;28;20163;-55
2023/05/31 06:41:34;;;;;;;10.25;7.03;;;;;;;;;;5092370;28;20620;-48
2023/05/31 06:44:01;;;;;;;17.17;7.07;;;17.40;99.90;;;;;;5092601;28;20248;-52
2023/05/31 06:46:26;;;;;;;10.73;6.65;;;17.60;99.90;;;;;;5092027;28;20617;-48
2023/05/31 06:48:52;;;;;;;13.23;7.03;;;17.60;99.90;;;;;;5091920;28;20215;-53
2023/05/31 06:51:19;;;;;;;10.38;6.82;;;17.60;99.90;;;;;;5091343;28;20177;-55
2023/05/31 06:53:45;;;;;;;10.32;7.10;;;17.90;99.90;;;;;;5092203;28;20184;-52
2023/05/31 06:56:10;;;;;;;10.35;6.43;;;18.00;99.90;;;;;;5092239;28;20169;-48
2023/05/31 06:58:36;;;;;;;13.45;7.28;;;18.20;99.90;;;;;;5092121;28;20165;-55
2023/05/31 07:01:01;;;;;;;17.15;7.15;;;18.40;99.90;;;;;;5092230;28;20523;-53
2023/05/31 07:03:27;;;;;;;17.50;6.07;;;18.40;99.90;;;;;;5091836;28;20184;-48
2023/05/31 07:05:52;;;;;;;12.25;6.57;;;18.30;99.90;;;;;;5091822;28;20197;-47
2023/05/31 07:08:18;;;;;;;14.70;6.10;;;18.30;99.90;;;;;;5091475;28;20217;-51
2023/05/31 07:10:45;;;;;;;8.43;4.90;;;18.70;99.90;;;;;;5091913;28;20287;-50
2023/05/31 07:13:11;;;;;;;7.28;5.28;;;18.80;99.90;;;;;;5091917;28;20200;-48
2023/05/31 07:15:37;;;;;;;8.93;5.55;;;18.80;99.90;;;;;;5091613;28;20533;-51
2023/05/31 07:18:03;;;;;;;7.25;4.30;;;;;;;;;;5091647;28;20625;-48
2023/05/31 07:20:28;;;;;;;9.50;5.20;;;18.40;99.90;;;;;;5092103;28;20175;-49
2023/05/31 07:22:56;;;;;;;7.32;5.53;;;18.90;99.90;;;;;;5091848;28;20568;-48
2023/05/31 07:25:22;;;;;;;9.45;5.10;;;19.00;99.90;;;;;;5091838;28;20169;-48
2023/05/31 07:27:47;;;;;;;9.18;5.00;;;19.00;99.90;;;;;;5091407;28;20526;-48
2023/05/31 07:30:13;;;;;;;6.80;4.40;;;19.10;99.90;;;;;;5091481;28;20625;-48
2023/05/31 07:32:39;;;;;;;8.02;4.88;;;19.20;99.90;;;;;;5091497;28;20266;-47
2023/05/31 07:35:06;;;;;;;10.52;5.13;;;19.20;99.90;;;;;;5091362;28;20169;-48
2023/05/31 07:37:31;;;;;;;10.07;5.53;;;19.30;99.90;;;;;;5091858;28;20157;-47
2023/05/31 07:39:57;;;;;;;8.27;4.95;;;19.10;99.90;;;;;;5091678;28;20165;-48
2023/05/31 07:42:23;;;;;;;8.75;5.43;;;19.50;99.90;;;;;;5091394;28;20162;-48
2023/05/31 07:44:49;;;;;;;10.05;5.43;;;19.80;99.90;;;;;;5091332;28;20189;-48
2023/05/31 07:47:15;;;;;;;8.65;5.25;;;19.60;99.90;;;;;;5091496;28;20172;-48
2023/05/31 07:49:41;;;;;;;8.52;4.57;;;;;;;;;;5091454;28;20231;-48
2023/05/31 07:52:07;;;;;;;9.13;4.28;;;19.90;99.90;;;;;;5091270;28;20173;-50
2023/05/31 07:54:33;;;;;;;9.77;4.55;;;19.70;99.90;;;;;;5091274;28;20168;-48
2023/05/31 07:56:59;;;;;;;9.32;4.47;;;;;;;;;;5091737;28;20162;-47
2023/05/31 07:59:25;;;;;;;6.47;4.95;;;20.10;99.90;;;;;;5091487;28;20185;-48
2023/05/31 08:01:51;;;;;;;7.03;4.22;;;19.90;99.90;;;;;;5092820;28;20629;-47
2023/05/31 08:04:16;;;;;;;9.40;4.30;;;20.20;99.90;;;;;;5095116;28;20165;-49
2023/05/31 08:06:42;;;;;;;8.85;5.13;;;20.50;99.90;;;;;;5095145;28;20217;-48
2023/05/31 08:09:08;;;;;;;9.25;4.90;;;20.60;99.90;;;;;;5095242;28;20740;-48
2023/05/31 08:11:38;;;;;;;7.07;3.83;;;20.60;99.90;;;;;;5095100;28;20200;-48
2023/05/31 08:14:04;;;;;;;11.25;3.85;;;20.80;99.90;;;;;;5095093;28;20161;-48
2023/05/31 08:16:32;;;;;;;7.32;4.00;;;20.90;99.90;;;;;;5095454;28;20161;-48
2023/05/31 08:18:58;;;;;;;10.05;4.20;;;20.60;99.90;;;;;;5095634;28;20314;-49
2023/05/31 08:21:24;;;;;;;8.38;4.05;;;20.30;99.90;;;;;;5094993;28;20195;-49
2023/05/31 08:23:49;;;;;;;7.60;3.85;;;20.90;99.90;;;;;;5094836;28;20176;-48
2023/05/31 08:26:15;;;;;;;6.65;4.22;;;20.80;99.90;;;;;;5094679;28;20644;-48
2023/05/31 08:28:41;;;;;;;8.32;4.28;;;21.30;99.90;;;;;;5094575;28;20201;-48
2023/05/31 08:31:07;;;;;;;6.10;4.50;;;;;;;;;;5094685;28;20191;-47
2023/05/31 08:33:33;;;;;;;9.55;4.28;;;21.30;99.90;;;;;;5094630;28;20193;-47
2023/05/31 08:35:59;;;;;;;6.57;4.03;;;21.20;99.90;;;;;;5095018;28;20180;-47
2023/05/31 08:38:28;;;;;;;8.20;4.28;;;21.20;99.90;;;;;;5094825;28;20177;-52
2023/05/31 08:41:00;;;;;;;7.57;3.67;;;21.70;99.90;;;;;;5094417;28;20214;-47
2023/05/31 08:43:27;;;;;;;8.13;3.70;;;21.80;99.90;;;;;;5094639;28;20252;-48
2023/05/31 08:45:53;;;;;;;5.57;4.10;;;;;;;;;;5094325;28;20214;-47
2023/05/31 08:48:29;;;;;;;9.32;4.05;;;21.90;99.90;;;;;;5094274;28;20197;-48
2023/05/31 08:50:57;;;;;;;11.13;4.45;;;22.00;99.90;;;;;;5094532;28;20260;-47
2023/05/31 08:53:25;;;;;;;6.30;3.85;;;22.20;99.90;;;;;;5094185;28;20178;-49
2023/05/31 08:55:53;;;;;;;5.00;3.22;;;22.30;99.90;;;;;;5076097;28;20165;-49
2023/05/31 08:58:19;;;;;;;6.78;3.65;;;22.50;99.90;;;;;;5094221;28;20184;-48
2023/05/31 09:00:46;;;;;;;7.70;3.95;;;22.70;99.90;;;;;;5094050;28;20172;-47
2023/05/31 09:03:12;;;;;;;5.97;3.53;;;22.30;99.90;;;;;;5094077;28;20684;-48
2023/05/31 09:05:38;;;;;;;6.20;3.65;;;22.90;99.90;;;;;;5093940;28;20656;-48
2023/05/31 09:08:03;;;;;;;6.13;3.72;;;22.80;99.90;;;;;;5093721;28;20217;-47
2023/05/31 09:10:30;;;;;;;5.38;3.00;;;23.20;99.90;;;;;;5094386;28;20323;-47
2023/05/31 09:12:56;;;;;;;4.63;3.03;;;22.80;99.40;;;;;;5093032;28;20172;-48
2023/05/31 09:15:23;;;;;;;3.72;2.90;;;22.90;98.40;;;;;;5094108;28;20169;-48
2023/05/31 09:17:50;;;;;;;7.50;3.28;;;23.00;99.40;;;;;;5094045;28;20176;-49
2023/05/31 09:20:16;;;;;;;7.03;3.30;;;23.00;98.80;;;;;;5093972;28;20564;-48
2023/05/31 09:22:42;;;;;;;8.85;3.53;;;23.10;99.90;;;;;;5093596;28;20173;-48
2023/05/31 09:25:08;;;;;;;8.30;3.33;;;23.20;99.70;;;;;;5093645;28;20169;-61
2023/05/31 09:27:38;;;;;;;5.20;3.05;;;23.40;99.20;;;;;;5093578;28;20537;-60
2023/05/31 09:30:14;;;;;;;4.93;2.70;;;23.30;96.60;;;;;;5093777;28;20295;-53
2023/05/31 09:32:39;;;;;;;7.78;2.75;;;23.30;94.60;;;;;;5093498;28;20169;-67
2023/05/31 09:35:16;;;;;;;6.85;3.17;;;23.10;95.50;;;;;;5093697;28;20219;-66
2023/05/31 09:37:47;;;;;;;4.82;2.33;;;23.50;95.10;;;;;;5093660;28;20188;-54
2023/05/31 09:40:14;;;;;;;6.22;2.70;;;23.50;93.50;;;;;;5093320;28;20165;-48
2023/05/31 09:42:50;;;;;;;7.25;2.75;;;23.70;92.50;;;;;;5093306;28;20162;-56
2023/05/31 09:45:16;;;;;;;6.40;2.90;;;23.40;92.20;;;;;;5093134;28;20165;-47
2023/05/31 09:47:42;;;;;;;6.30;2.92;;;23.80;91.50;;;;;;5093292;28;20257;-55
2023/05/31 09:50:21;;;;;;;10.20;2.85;;;23.50;90.70;;;;;;5093171;28;20291;-48
2023/05/31 09:52:51;;;;;;;8.43;2.63;;;23.70;91.00;;;;;;5093076;28;20672;-47
2023/05/31 09:55:17;;;;;;;5.32;2.20;;;24.00;91.20;;;;;;5093332;28;20621;-48
2023/05/31 09:57:44;;;;;;;4.93;2.38;;;24.00;89.50;;;;;;5093427;28;20170;-49
2023/05/31 10:00:20;;;;;;;3.97;2.10;;;23.90;89.60;;;;;;5093344;28;20173;-48
2023/05/31 10:02:51;;;;;;;3.45;2.22;;;24.20;87.50;;;;;;5074756;28;20173;-48
2023/05/31 10:05:18;;;;;;;4.63;2.45;;;24.50;87.10;;;;;;5093010;28;20180;-48
2023/05/31 10:07:46;;;;;;;7.80;2.35;;;24.40;85.60;;;;;;5092576;28;20228;-50
2023/05/31 10:10:12;;;;;;;4.13;2.42;;;24.60;83.00;;;;;;5092651;28;20213;-47
2023/05/31 10:13:01;;;;;;;4.88;2.38;;;24.50;81.10;;;;;;5092781;28;20184;-47
2023/05/31 10:15:27;;;;;;;4.70;2.50;;;24.80;83.00;;;;;;5093107;28;20161;-47
2023/05/31 10:18:11;;;;;;;3.65;2.13;;;24.80;82.00;;;;;;5092591;28;20161;-48
2023/05/31 10:20:58;;;;;;;4.85;2.40;;;24.60;80.10;;;;;;5092520;28;20541;-47
2023/05/31 10:23:24;;;;;;;3.92;2.40;;;24.70;80.70;;;;;;5092393;28;20244;-47
2023/05/31 10:26:14;;;;;;;5.38;2.40;;;24.70;81.70;;;;;;5090703;28;20194;-48
2023/05/31 10:29:15;;;;;;;7.32;2.60;;;24.90;82.00;;;;;;5092363;28;20219;-47
2023/05/31 10:32:08;;;;;;;3.70;2.40;;;25.20;81.10;;;;;;5091763;28;20636;-48
2023/05/31 10:34:34;;;;;;;3.78;2.28;;;24.70;77.70;;;;;;5092036;28;20172;-48
2023/05/31 10:37:00;;;;;;;7.35;2.65;;;25.20;78.60;;;;;;5092444;28;20165;-51
2023/05/31 10:39:46;;;;;;;4.47;2.17;;;25.30;77.80;;;;;;5091658;28;20644;-47
2023/05/31 10:42:25;;;;;;;2.50;2.08;;;25.40;75.80;;;;;;5091949;28;20189;-48
2023/05/31 10:45:05;;;;;;;4.45;2.63;;;25.40;76.80;;;;;;5091871;28;20173;-47
2023/05/31 10:47:39;;;;;;;15.13;4.07;;;25.50;77.70;;;;;;5092490;28;20204;-48
2023/05/31 10:50:05;;;;;;;7.60;2.45;;;25.70;77.60;;;;;;5091648;28;20200;-49
2023/05/31 10:52:31;;;;;;;3.85;2.15;;;25.30;77.60;;;;;;5092047;28;20165;-47
2023/05/31 10:55:20;;;;;;;5.47;2.25;;;25.70;75.30;;;;;;5091876;28;20656;-48
2023/05/31 10:57:56;;;;;;;4.60;2.10;;;25.50;75.50;;;;;;5091705;28;20260;-59
2023/05/31 11:00:23;;;;;;;5.32;2.28;;;25.60;74.90;;;;;;5091986;28;20173;-66
2023/05/31 11:02:55;;;;;;;4.53;2.20;;;25.50;76.20;;;;;;5091653;28;20213;-66
2023/05/31 11:05:22;;;;;;;4.60;2.30;;;;;;;;;;5091580;28;20161;-63
2023/05/31 11:07:49;;;;;;;2.85;2.00;;;25.70;74.60;;;;;;5091067;28;20715;-59
2023/05/31 11:10:34;;;;;;;3.00;2.22;;;;;;;;;;5091627;28;20216;-60
2023/05/31 11:13:03;;;;;;;3.28;2.20;;;25.80;75.80;;;;;;5092159;28;20173;-55
2023/05/31 11:15:40;;;;;;;2.72;2.10;;;26.00;75.40;;;;;;5091875;28;20165;-47
2023/05/31 11:18:09;;;;;;;3.97;2.38;;;26.00;74.40;;;;;;5091654;28;20176;-49
2023/05/31 11:20:36;;;;;;;6.85;2.60;;;26.10;74.80;;;;;;5091373;28;20169;-49
2023/05/31 11:23:23;;;;;;;4.95;2.30;;;26.10;73.70;;;;;;5091112;28;20691;-47
2023/05/31 11:26:17;;;;;;;9.57;2.22;;;26.30;76.10;;;;;;5091263;28;20169;-47
2023/05/31 11:28:59;;;;;;;4.38;2.42;;;26.10;74.70;;;;;;5091512;28;20204;-48
2023/05/31 11:31:55;;;;;;;6.10;2.80;;;26.30;74.30;;;;;;5091606;28;20172;-53
2023/05/31 11:34:24;;;;;;;3.33;2.33;;;26.00;75.60;;;;;;5091280;28;20540;-53
2023/05/31 11:36:50;;;;;;;2.85;2.15;;;;;;;;;;5092757;28;20157;-51
2023/05/31 11:39:17;;;;;;;5.88;2.53;;;26.10;77.10;;;;;;5095459;28;20175;-48
2023/05/31 11:41:44;;;;;;;4.53;2.45;;;26.50;78.10;;;;;;5095496;28;20157;-52
2023/05/31 11:44:16;;;;;;;4.68;2.35;;;26.40;77.70;;;;;;5095614;28;20172;-53
2023/05/31 11:46:45;;;;;;;6.07;2.83;;;26.20;76.20;;;;;;5095385;28;20164;-52
2023/05/31 11:49:12;;;;;;;5.13;2.50;;;26.70;79.70;;;;;;5095160;28;20696;-50
2023/05/31 11:51:41;;;;;;;3.70;2.10;;;26.20;78.00;;;;;;5094934;28;20680;-47
2023/05/31 11:54:08;;;;;;;5.93;2.70;;;26.40;77.40;;;;;;5095321;28;20172;-48
2023/05/31 11:56:36;;;;;;;12.05;3.47;;;26.50;78.40;;;;;;5095276;28;20200;-47
2023/05/31 11:59:02;;;;;;;4.03;2.78;;;26.60;79.20;;;;;;5094978;28;20683;-47
2023/05/31 12:01:28;;;;;;;8.20;3.03;;;26.40;80.70;;;;;;5095302;28;20178;-48
2023/05/31 12:04:00;;;;;;;8.77;2.88;;;;;;;;;;5095003;28;20176;-48
2023/05/31 12:06:28;;;;;;;5.65;2.53;;;26.10;78.40;;;;;;5094905;28;20212;-48
2023/05/31 12:08:54;;;;;;;7.07;2.60;;;26.30;79.70;;;;;;5095166;28;20246;-47
2023/05/31 12:11:21;;;;;;;2.95;2.30;;;26.60;81.20;;;;;;5095046;28;20219;-47
2023/05/31 12:13:53;;;;;;;6.55;2.90;;;26.20;79.40;;;;;;5094839;28;20165;-47
2023/05/31 12:16:18;;;;;;;5.95;2.60;;;;;;;;;;5094826;28;20674;-52
2023/05/31 12:18:47;;;;;;;6.22;3.00;;;26.00;78.80;;;;;;5094678;28;20417;-47
2023/05/31 12:21:15;;;;;;;4.45;2.90;;;26.10;78.80;;;;;;5094441;28;20169;-47
2023/05/31 12:23:58;;;;;;;6.05;2.80;;;26.10;79.60;;;;;;5094716;28;20165;-49
2023/05/31 12:26:26;;;;;;;9.27;3.33;;;26.40;80.30;;;;;;5094405;28;20604;-47
2023/05/31 12:28:52;;;;;;;5.32;2.70;;;26.10;79.80;;;;;;5094669;28;20210;-48
2023/05/31 12:31:22;;;;;;;7.25;2.25;;;25.80;78.20;;;;;;5094453;28;20165;-48
2023/05/31 12:34:12;;;;;;;5.25;2.55;;;25.80;79.10;;;;;;5094288;28;20670;-46
2023/05/31 12:36:49;;;;;;;7.25;2.85;;;25.90;80.10;;;;;;5093386;28;20216;-47
2023/05/31 12:39:27;;;;;;;4.70;2.72;;;26.10;78.90;;;;;;5094320;28;20234;-45
2023/05/31 12:41:52;;;;;;;6.95;2.70;;;26.30;78.60;;;;;;5094201;28;20156;-46
2023/05/31 12:44:22;;;;;;;8.20;2.72;;;;;;;;;;5094255;28;20157;-46
2023/05/31 12:46:50;;;;;;;6.35;2.72;;;26.50;78.10;;;;;;5103025;28;20179;-50
2023/05/31 12:49:24;;;;;;;7.85;2.80;;;26.50;78.60;;;;;;5111790;28;20200;-49
2023/05/31 12:52:10;;;;;;;6.43;3.17;;;26.50;78.40;;;;;;5112789;28;20160;-53
2023/05/31 12:54:37;;;;;;;6.72;2.80;;;26.50;79.00;;;;;;5112734;28;20172;-51
2023/05/31 12:57:11;;;;;;;6.50;3.35;;;26.60;78.40;;;;;;5112765;28;20160;-52